createdAt,value
2023-01-26T00:00:51.469Z,0.15
2023-01-26T00:01:51.453Z,0.15
2023-01-26T00:02:51.557Z,0.15
2023-01-26T00:03:51.488Z,0.12
2023-01-26T00:04:51.408Z,0.10
2023-01-26T00:05:51.420Z,0.12
2023-01-26T00:06:51.443Z,0.12
2023-01-26T00:07:51.423Z,0.13
2023-01-26T00:08:51.367Z,0.16
2023-01-26T00:09:51.362Z,0.20
2023-01-26T00:10:51.333Z,0.23
2023-01-26T00:11:51.337Z,0.24
2023-01-26T00:12:51.313Z,0.24
2023-01-26T00:13:51.344Z,0.25
2023-01-26T00:14:51.282Z,0.25
2023-01-26T00:15:51.305Z,0.27
2023-01-26T00:16:51.264Z,0.27
2023-01-26T00:17:51.317Z,0.31
2023-01-26T00:18:51.281Z,0.36
2023-01-26T00:19:51.312Z,0.42
2023-01-26T00:20:51.244Z,0.38
2023-01-26T00:21:51.240Z,0.38
2023-01-26T00:22:51.194Z,0.38
2023-01-26T00:23:51.255Z,0.34
2023-01-26T00:24:51.168Z,0.34
2023-01-26T00:25:51.311Z,0.36
2023-01-26T00:26:51.170Z,0.38
2023-01-26T00:27:51.172Z,0.38
2023-01-26T00:28:51.160Z,0.39
2023-01-26T00:29:51.126Z,0.39
2023-01-26T00:30:51.166Z,0.43
2023-01-26T00:31:51.146Z,0.45
2023-01-26T00:32:51.079Z,0.45
2023-01-26T00:33:51.131Z,0.43
2023-01-26T00:34:51.055Z,0.45
2023-01-26T00:35:51.094Z,0.46
2023-01-26T00:36:51.035Z,0.46
2023-01-26T00:37:51.104Z,0.46
2023-01-26T00:38:51.035Z,0.48
2023-01-26T00:39:51.053Z,0.48
2023-01-26T00:40:51.054Z,0.46
2023-01-26T00:41:51.010Z,0.46
2023-01-26T00:42:50.993Z,0.46
2023-01-26T00:43:50.992Z,0.45
2023-01-26T00:44:50.977Z,0.45
2023-01-26T00:45:50.952Z,0.42
2023-01-26T00:46:51.008Z,0.42
2023-01-26T00:47:50.950Z,0.41
2023-01-26T00:48:50.933Z,0.41
2023-01-26T00:49:50.897Z,0.42
2023-01-26T00:50:50.922Z,0.42
2023-01-26T00:51:50.924Z,0.43
2023-01-26T00:52:50.859Z,0.42
2023-01-26T00:53:50.856Z,0.42
2023-01-26T00:54:50.855Z,0.41
2023-01-26T00:55:50.867Z,0.42
2023-01-26T00:56:50.808Z,0.43
2023-01-26T00:57:50.868Z,0.41
2023-01-26T00:58:50.813Z,0.43
2023-01-26T00:59:50.834Z,0.43
2023-01-26T01:00:50.885Z,0.42
2023-01-26T01:01:50.912Z,0.42
2023-01-26T01:02:50.747Z,0.45
2023-01-26T01:03:50.748Z,0.43
2023-01-26T01:04:50.719Z,0.42
2023-01-26T01:05:50.753Z,0.41
2023-01-26T01:06:50.729Z,0.41
2023-01-26T01:07:50.745Z,0.42
2023-01-26T01:08:50.670Z,0.41
2023-01-26T01:09:50.679Z,0.42
2023-01-26T01:10:50.675Z,0.38
2023-01-26T01:11:50.675Z,0.36
2023-01-26T01:12:50.686Z,0.39
2023-01-26T01:13:50.679Z,0.38
2023-01-26T01:14:50.656Z,0.39
2023-01-26T01:15:50.625Z,0.38
2023-01-26T01:16:50.605Z,0.36
2023-01-26T01:17:50.618Z,0.38
2023-01-26T01:18:50.597Z,0.38
2023-01-26T01:19:50.591Z,0.38
2023-01-26T01:20:50.579Z,0.38
2023-01-26T01:21:50.545Z,0.36
2023-01-26T01:22:50.519Z,0.36
2023-01-26T01:23:50.560Z,0.36
2023-01-26T01:24:50.519Z,0.36
2023-01-26T01:25:50.494Z,0.34
2023-01-26T01:26:50.516Z,0.34
2023-01-26T01:27:50.496Z,0.36
2023-01-26T01:28:57.496Z,0.36
2023-01-26T01:29:50.473Z,0.33
2023-01-26T01:30:50.485Z,0.34
2023-01-26T01:31:50.456Z,0.33
2023-01-26T01:32:50.433Z,0.34
2023-01-26T01:33:50.411Z,0.36
2023-01-26T01:34:50.427Z,0.38
2023-01-26T01:35:50.450Z,0.42
2023-01-26T01:36:50.358Z,0.42
2023-01-26T01:37:50.423Z,0.43
2023-01-26T01:38:50.395Z,0.42
2023-01-26T01:39:50.363Z,0.42
2023-01-26T01:40:50.349Z,0.43
2023-01-26T01:41:50.321Z,0.45
2023-01-26T01:42:50.327Z,0.43
2023-01-26T01:43:50.290Z,0.42
2023-01-26T01:44:50.277Z,0.41
2023-01-26T01:45:50.298Z,0.43
2023-01-26T01:46:50.313Z,0.43
2023-01-26T01:47:50.248Z,0.43
2023-01-26T01:48:50.218Z,0.41
2023-01-26T01:49:50.245Z,0.41
2023-01-26T01:50:50.232Z,0.42
2023-01-26T01:51:50.214Z,0.46
2023-01-26T01:52:50.206Z,0.46
2023-01-26T01:53:50.207Z,0.45
2023-01-26T01:54:50.159Z,0.43
2023-01-26T01:55:50.215Z,0.42
2023-01-26T01:56:50.190Z,0.46
2023-01-26T01:57:50.148Z,0.48
2023-01-26T01:58:50.135Z,0.49
2023-01-26T01:59:50.140Z,0.51
2023-01-26T02:00:50.140Z,0.51
2023-01-26T02:01:50.136Z,0.48
2023-01-26T02:02:50.101Z,0.46
2023-01-26T02:03:50.071Z,0.46
2023-01-26T02:04:50.086Z,0.48
2023-01-26T02:05:50.087Z,0.48
2023-01-26T02:06:50.056Z,0.51
2023-01-26T02:07:50.070Z,0.48
2023-01-26T02:08:50.040Z,0.36
2023-01-26T02:09:50.001Z,0.31
2023-01-26T02:10:49.975Z,0.23
2023-01-26T02:11:50.005Z,0.20
2023-01-26T02:12:49.979Z,0.18
2023-01-26T02:13:49.990Z,0.16
2023-01-26T02:14:49.931Z,0.12
2023-01-26T02:15:50.001Z,0.12
2023-01-26T02:16:49.914Z,0.13
2023-01-26T02:17:49.920Z,0.13
2023-01-26T02:18:49.932Z,0.10
2023-01-26T02:19:49.890Z,0.09
2023-01-26T02:20:49.866Z,0.10
2023-01-26T02:21:49.911Z,0.13
2023-01-26T02:22:49.868Z,0.13
2023-01-26T02:23:49.910Z,0.15
2023-01-26T02:24:49.847Z,0.13
2023-01-26T02:25:49.825Z,0.09
2023-01-26T02:26:49.826Z,0.05
2023-01-26T02:27:49.791Z,0.03
2023-01-26T02:28:49.814Z,0.05
2023-01-26T02:29:49.799Z,0.02
2023-01-26T02:30:49.824Z,0.00
2023-01-26T02:31:49.843Z,0.00
2023-01-26T02:32:49.770Z,-0.04
2023-01-26T02:33:49.761Z,-0.06
2023-01-26T02:34:49.762Z,-0.08
2023-01-26T02:35:49.705Z,-0.12
2023-01-26T02:36:49.683Z,-0.13
2023-01-26T02:37:49.708Z,-0.16
2023-01-26T02:38:49.679Z,-0.19
2023-01-26T02:39:49.724Z,-0.23
2023-01-26T02:40:49.661Z,-0.24
2023-01-26T02:41:49.673Z,-0.19
2023-01-26T02:42:49.646Z,-0.18
2023-01-26T02:43:49.649Z,-0.15
2023-01-26T02:44:49.663Z,-0.16
2023-01-26T02:45:49.620Z,-0.23
2023-01-26T02:46:49.581Z,-0.24
2023-01-26T02:47:49.573Z,-0.26
2023-01-26T02:48:49.588Z,-0.26
2023-01-26T02:49:49.552Z,-0.22
2023-01-26T02:50:49.571Z,-0.16
2023-01-26T02:51:49.550Z,-0.16
2023-01-26T02:52:49.513Z,-0.16
2023-01-26T02:53:49.534Z,-0.15
2023-01-26T02:54:49.493Z,-0.13
2023-01-26T02:55:49.524Z,-0.12
2023-01-26T02:56:49.473Z,-0.08
2023-01-26T02:57:49.462Z,-0.04
2023-01-26T02:58:49.450Z,-0.01
2023-01-26T02:59:49.479Z,-0.06
2023-01-26T03:00:49.479Z,-0.11
2023-01-26T03:01:49.497Z,-0.11
2023-01-26T03:02:49.439Z,-0.12
2023-01-26T03:03:49.421Z,-0.12
2023-01-26T03:04:49.413Z,-0.13
2023-01-26T03:05:49.383Z,-0.15
2023-01-26T03:06:49.408Z,-0.12
2023-01-26T03:07:49.336Z,-0.11
2023-01-26T03:08:49.339Z,-0.12
2023-01-26T03:09:49.331Z,-0.11
2023-01-26T03:10:49.352Z,-0.08
2023-01-26T03:11:49.352Z,-0.01
2023-01-26T03:12:49.337Z,-0.04
2023-01-26T03:13:49.266Z,0.02
2023-01-26T03:14:49.301Z,0.02
2023-01-26T03:15:49.329Z,0.03
2023-01-26T03:16:49.306Z,0.00
2023-01-26T03:17:49.260Z,-0.05
2023-01-26T03:18:49.226Z,-0.01
2023-01-26T03:19:49.237Z,0.03
2023-01-26T03:20:49.225Z,0.03
2023-01-26T03:21:49.202Z,0.03
2023-01-26T03:22:49.179Z,0.06
2023-01-26T03:23:49.235Z,0.05
2023-01-26T03:24:49.170Z,0.05
2023-01-26T03:25:49.135Z,0.06
2023-01-26T03:26:49.136Z,0.09
2023-01-26T03:27:49.133Z,0.12
2023-01-26T03:28:49.109Z,0.09
2023-01-26T03:29:49.147Z,0.12
2023-01-26T03:30:49.158Z,0.13
2023-01-26T03:31:49.068Z,0.09
2023-01-26T03:32:49.090Z,0.02
2023-01-26T03:33:49.065Z,-0.05
2023-01-26T03:34:49.047Z,-0.04
2023-01-26T03:35:49.084Z,-0.05
2023-01-26T03:36:49.030Z,-0.04
2023-01-26T03:37:48.999Z,-0.01
2023-01-26T03:38:48.998Z,-0.01
2023-01-26T03:39:48.976Z,-0.01
2023-01-26T03:40:49.027Z,-0.01
2023-01-26T03:41:48.974Z,0.02
2023-01-26T03:42:48.955Z,0.07
2023-01-26T03:43:48.927Z,0.10
2023-01-26T03:44:48.972Z,0.13
2023-01-26T03:45:48.938Z,0.13
2023-01-26T03:46:49.048Z,0.13
2023-01-26T03:47:48.925Z,0.18
2023-01-26T03:48:48.907Z,0.20
2023-01-26T03:49:48.886Z,0.16
2023-01-26T03:50:48.872Z,0.18
2023-01-26T03:51:48.886Z,0.13
2023-01-26T03:52:48.884Z,0.09
2023-01-26T03:53:48.822Z,0.05
2023-01-26T03:54:48.829Z,0.03
2023-01-26T03:55:48.789Z,0.03
2023-01-26T03:56:48.865Z,0.03
2023-01-26T03:57:48.767Z,0.03
2023-01-26T03:58:48.817Z,0.03
2023-01-26T03:59:48.800Z,0.00
2023-01-26T04:00:48.810Z,0.00
2023-01-26T04:01:48.761Z,0.02
2023-01-26T04:02:48.763Z,0.03
2023-01-26T04:03:48.727Z,0.02
2023-01-26T04:04:48.746Z,0.03
2023-01-26T04:05:48.690Z,0.02
2023-01-26T04:06:48.680Z,-0.04
2023-01-26T04:07:48.692Z,-0.04
2023-01-26T04:08:48.762Z,0.02
2023-01-26T04:09:48.632Z,-0.01
2023-01-26T04:10:48.680Z,-0.05
2023-01-26T04:11:48.638Z,-0.06
2023-01-26T04:12:48.833Z,-0.08
2023-01-26T04:13:48.649Z,-0.09
2023-01-26T04:14:50.144Z,-0.09
2023-01-26T04:15:48.596Z,-0.09
2023-01-26T04:16:48.598Z,-0.11
2023-01-26T04:17:48.550Z,-0.09
2023-01-26T04:18:48.600Z,-0.06
2023-01-26T04:19:48.521Z,-0.05
2023-01-26T04:20:48.570Z,-0.01
2023-01-26T04:21:48.499Z,0.00
2023-01-26T04:22:48.526Z,0.03
2023-01-26T04:23:48.551Z,0.07
2023-01-26T04:24:48.540Z,0.06
2023-01-26T04:25:48.453Z,0.06
2023-01-26T04:26:48.481Z,0.07
2023-01-26T04:27:48.461Z,0.09
2023-01-26T04:28:48.458Z,0.07
2023-01-26T04:29:48.430Z,0.06
2023-01-26T04:30:48.531Z,0.07
2023-01-26T04:31:48.491Z,0.09
2023-01-26T04:32:48.417Z,0.10
2023-01-26T04:33:48.375Z,0.12
2023-01-26T04:34:48.363Z,0.13
2023-01-26T04:35:48.386Z,0.16
2023-01-26T04:36:48.342Z,0.13
2023-01-26T04:37:48.352Z,0.07
2023-01-26T04:38:48.348Z,0.07
2023-01-26T04:39:48.293Z,0.09
2023-01-26T04:40:48.321Z,0.12
2023-01-26T04:41:48.307Z,0.10
2023-01-26T04:42:48.274Z,0.05
2023-01-26T04:43:48.270Z,0.06
2023-01-26T04:44:48.252Z,0.06
2023-01-26T04:45:48.274Z,0.10
2023-01-26T04:46:48.288Z,0.12
2023-01-26T04:47:48.237Z,0.15
2023-01-26T04:48:48.203Z,0.20
2023-01-26T04:49:48.209Z,0.21
2023-01-26T04:50:48.214Z,0.24
2023-01-26T04:51:48.156Z,0.27
2023-01-26T04:52:48.224Z,0.30
2023-01-26T04:53:48.142Z,0.30
2023-01-26T04:54:48.142Z,0.34
2023-01-26T04:55:48.119Z,0.39
2023-01-26T04:56:48.135Z,0.42
2023-01-26T04:57:48.148Z,0.39
2023-01-26T04:58:48.119Z,0.39
2023-01-26T04:59:48.065Z,0.41
2023-01-26T05:00:48.118Z,0.39
2023-01-26T05:01:48.093Z,0.42
2023-01-26T05:02:48.087Z,0.42
2023-01-26T05:03:48.080Z,0.42
2023-01-26T05:04:48.036Z,0.45
2023-01-26T05:05:48.032Z,0.45
2023-01-26T05:06:48.064Z,0.45
2023-01-26T05:07:47.976Z,0.43
2023-01-26T05:08:47.986Z,0.46
2023-01-26T05:09:47.980Z,0.48
2023-01-26T05:10:47.981Z,0.49
2023-01-26T05:11:47.969Z,0.53
2023-01-26T05:12:47.995Z,0.52
2023-01-26T05:13:47.973Z,0.52
2023-01-26T05:14:47.953Z,0.52
2023-01-26T05:15:47.895Z,0.48
2023-01-26T05:16:47.969Z,0.46
2023-01-26T05:17:47.934Z,0.41
2023-01-26T05:18:47.866Z,0.41
2023-01-26T05:19:47.874Z,0.34
2023-01-26T05:20:47.888Z,0.33
2023-01-26T05:21:47.842Z,0.31
2023-01-26T05:22:47.844Z,0.31
2023-01-26T05:23:47.857Z,0.33
2023-01-26T05:24:47.826Z,0.36
2023-01-26T05:25:47.826Z,0.33
2023-01-26T05:26:47.803Z,0.33
2023-01-26T05:27:47.805Z,0.28
2023-01-26T05:28:47.788Z,0.25
2023-01-26T05:29:47.750Z,0.23
2023-01-26T05:30:47.824Z,0.23
2023-01-26T05:31:47.782Z,0.20
2023-01-26T05:32:47.709Z,0.18
2023-01-26T05:33:47.717Z,0.20
2023-01-26T05:34:47.710Z,0.23
2023-01-26T05:35:47.680Z,0.21
2023-01-26T05:36:47.668Z,0.21
2023-01-26T05:37:47.638Z,0.23
2023-01-26T05:38:47.668Z,0.21
2023-01-26T05:39:47.625Z,0.21
2023-01-26T05:40:47.626Z,0.21
2023-01-26T05:41:47.664Z,0.25
2023-01-26T05:42:47.598Z,0.28
2023-01-26T05:43:47.572Z,0.33
2023-01-26T05:44:47.609Z,0.36
2023-01-26T05:45:47.588Z,0.36
2023-01-26T05:46:47.561Z,0.41
2023-01-26T05:47:47.531Z,0.42
2023-01-26T05:48:47.554Z,0.45
2023-01-26T05:49:47.546Z,0.46
2023-01-26T05:50:47.509Z,0.48
2023-01-26T05:51:47.497Z,0.51
2023-01-26T05:52:47.506Z,0.51
2023-01-26T05:53:47.489Z,0.52
2023-01-26T05:54:47.459Z,0.53
2023-01-26T05:55:47.467Z,0.46
2023-01-26T05:56:47.468Z,0.46
2023-01-26T05:57:47.456Z,0.45
2023-01-26T05:58:47.410Z,0.43
2023-01-26T05:59:47.420Z,0.41
2023-01-26T06:00:47.389Z,0.42
2023-01-26T06:01:47.370Z,0.43
2023-01-26T06:02:48.681Z,0.43
2023-01-26T06:03:47.340Z,0.49
2023-01-26T06:04:47.406Z,0.51
2023-01-26T06:05:47.348Z,0.52
2023-01-26T06:06:47.333Z,0.48
2023-01-26T06:07:47.321Z,0.48
2023-01-26T06:08:47.335Z,0.48
2023-01-26T06:09:47.279Z,0.45
2023-01-26T06:10:47.299Z,0.43
2023-01-26T06:11:47.315Z,0.39
2023-01-26T06:12:47.263Z,0.38
2023-01-26T06:13:47.231Z,0.38
2023-01-26T06:14:47.520Z,0.38
2023-01-26T06:15:47.257Z,0.36
2023-01-26T06:16:47.253Z,0.38
2023-01-26T06:17:47.218Z,0.39
2023-01-26T06:18:47.222Z,0.39
2023-01-26T06:19:47.182Z,0.43
2023-01-26T06:20:47.204Z,0.45
2023-01-26T06:21:47.179Z,0.46
2023-01-26T06:22:47.171Z,0.43
2023-01-26T06:23:47.186Z,0.43
2023-01-26T06:24:47.151Z,0.45
2023-01-26T06:25:47.095Z,0.45
2023-01-26T06:26:47.142Z,0.43
2023-01-26T06:27:47.980Z,0.41
2023-01-26T06:28:47.083Z,0.42
2023-01-26T06:29:47.078Z,0.49
2023-01-26T06:30:47.182Z,0.52
2023-01-26T06:31:47.096Z,0.52
2023-01-26T06:32:47.063Z,0.48
2023-01-26T06:33:47.013Z,0.46
2023-01-26T06:34:47.049Z,0.45
2023-01-26T06:35:46.991Z,0.48
2023-01-26T06:36:46.993Z,0.49
2023-01-26T06:37:47.013Z,0.45
2023-01-26T06:38:46.999Z,0.46
2023-01-26T06:39:46.980Z,0.46
2023-01-26T06:40:46.952Z,0.46
2023-01-26T06:41:46.951Z,0.46
2023-01-26T06:42:46.948Z,0.46
2023-01-26T06:43:47.790Z,0.48
2023-01-26T06:44:46.951Z,0.48
2023-01-26T06:45:46.914Z,0.48
2023-01-26T06:46:46.909Z,0.52
2023-01-26T06:47:46.856Z,0.53
2023-01-26T06:48:46.855Z,0.53
2023-01-26T06:49:46.896Z,0.57
2023-01-26T06:50:46.851Z,0.57
2023-01-26T06:51:46.852Z,0.58
2023-01-26T06:52:46.806Z,0.58
2023-01-26T06:53:46.812Z,0.60
2023-01-26T06:54:46.783Z,0.60
2023-01-26T06:55:46.811Z,0.62
2023-01-26T06:56:46.789Z,0.65
2023-01-26T06:57:46.737Z,0.64
2023-01-26T06:58:46.787Z,0.64
2023-01-26T06:59:46.716Z,0.64
2023-01-26T07:00:46.742Z,0.64
2023-01-26T07:01:46.751Z,0.70
2023-01-26T07:02:46.789Z,0.70
2023-01-26T07:03:46.678Z,0.67
2023-01-26T07:04:46.722Z,0.67
2023-01-26T07:05:46.693Z,0.65
2023-01-26T07:06:46.676Z,0.64
2023-01-26T07:07:46.627Z,0.58
2023-01-26T07:08:46.653Z,0.49
2023-01-26T07:09:46.643Z,0.43
2023-01-26T07:10:46.606Z,0.42
2023-01-26T07:11:46.595Z,0.39
2023-01-26T07:12:46.631Z,0.36
2023-01-26T07:13:46.580Z,0.33
2023-01-26T07:14:46.567Z,0.34
2023-01-26T07:15:46.581Z,0.30
2023-01-26T07:16:46.552Z,0.30
2023-01-26T07:17:46.554Z,0.27
2023-01-26T07:18:46.567Z,0.31
2023-01-26T07:19:46.506Z,0.34
2023-01-26T07:20:46.512Z,0.36
2023-01-26T07:21:46.514Z,0.38
2023-01-26T07:22:46.466Z,0.38
2023-01-26T07:23:46.498Z,0.41
2023-01-26T07:24:46.464Z,0.45
2023-01-26T07:25:46.476Z,0.48
2023-01-26T07:26:46.450Z,0.48
2023-01-26T07:27:46.423Z,0.49
2023-01-26T07:28:46.391Z,0.48
2023-01-26T07:29:46.460Z,0.51
2023-01-26T07:30:46.396Z,0.53
2023-01-26T07:31:46.447Z,0.52
2023-01-26T07:32:46.396Z,0.58
2023-01-26T07:33:46.358Z,0.60
2023-01-26T07:34:46.398Z,0.58
2023-01-26T07:35:46.352Z,0.58
2023-01-26T07:36:46.332Z,0.60
2023-01-26T07:37:46.302Z,0.57
2023-01-26T07:38:46.315Z,0.52
2023-01-26T07:39:46.318Z,0.48
2023-01-26T07:40:46.279Z,0.45
2023-01-26T07:41:46.259Z,0.46
2023-01-26T07:42:46.239Z,0.42
2023-01-26T07:43:46.290Z,0.45
2023-01-26T07:44:46.235Z,0.46
2023-01-26T07:45:46.253Z,0.48
2023-01-26T07:46:46.251Z,0.48
2023-01-26T07:47:46.205Z,0.45
2023-01-26T07:48:46.172Z,0.42
2023-01-26T07:49:46.201Z,0.45
2023-01-26T07:50:46.165Z,0.43
2023-01-26T07:51:46.211Z,0.41
2023-01-26T07:52:46.129Z,0.41
2023-01-26T07:53:46.147Z,0.41
2023-01-26T07:54:46.108Z,0.43
2023-01-26T07:55:46.126Z,0.48
2023-01-26T07:56:46.152Z,0.51
2023-01-26T07:57:46.088Z,0.51
2023-01-26T07:58:46.059Z,0.48
2023-01-26T07:59:46.050Z,0.49
2023-01-26T08:00:46.032Z,0.48
2023-01-26T08:01:46.120Z,0.49
2023-01-26T08:02:46.064Z,0.52
2023-01-26T08:03:46.050Z,0.53
2023-01-26T08:04:45.991Z,0.52
2023-01-26T08:05:46.011Z,0.53
2023-01-26T08:06:46.013Z,0.57
2023-01-26T08:07:45.989Z,0.52
2023-01-26T08:08:45.973Z,0.53
2023-01-26T08:09:45.940Z,0.58
2023-01-26T08:10:45.949Z,0.61
2023-01-26T08:11:45.921Z,0.64
2023-01-26T08:12:45.931Z,0.64
2023-01-26T08:13:45.921Z,0.65
2023-01-26T08:14:47.294Z,0.72
2023-01-26T08:15:45.883Z,0.72
2023-01-26T08:16:46.676Z,0.71
2023-01-26T08:17:45.890Z,0.65
2023-01-26T08:18:45.873Z,0.65
2023-01-26T08:19:45.854Z,0.68
2023-01-26T08:20:45.803Z,0.70
2023-01-26T08:21:45.803Z,0.65
2023-01-26T08:23:00.620Z,0.67
2023-01-26T08:23:45.848Z,0.65
2023-01-26T08:24:45.793Z,0.67
2023-01-26T08:25:45.810Z,0.68
2023-01-26T08:26:56.467Z,0.70
2023-01-26T08:27:45.768Z,0.75
2023-01-26T08:28:45.769Z,0.78
2023-01-26T08:29:45.722Z,0.80
2023-01-26T08:30:45.784Z,0.83
2023-01-26T08:31:45.852Z,0.83
2023-01-26T08:32:45.671Z,0.86
2023-01-26T08:33:45.674Z,0.85
2023-01-26T08:34:45.703Z,0.86
2023-01-26T08:35:45.644Z,0.88
2023-01-26T08:36:45.650Z,0.86
2023-01-26T08:37:45.660Z,0.88
2023-01-26T08:38:45.623Z,0.85
2023-01-26T08:39:45.604Z,0.83
2023-01-26T08:40:45.613Z,0.82
2023-01-26T08:41:45.583Z,0.80
2023-01-26T08:42:45.622Z,0.76
2023-01-26T08:43:45.565Z,0.72
2023-01-26T08:44:45.569Z,0.68
2023-01-26T08:45:45.598Z,0.70
2023-01-26T08:46:45.513Z,0.72
2023-01-26T08:47:45.515Z,0.76
2023-01-26T08:48:45.520Z,0.71
2023-01-26T08:49:45.541Z,0.70
2023-01-26T08:50:45.501Z,0.71
2023-01-26T08:51:45.467Z,0.70
2023-01-26T08:52:45.468Z,0.70
2023-01-26T08:53:45.472Z,0.76
2023-01-26T08:54:45.443Z,0.79
2023-01-26T08:55:45.507Z,0.82
2023-01-26T08:56:45.422Z,0.88
2023-01-26T08:57:45.398Z,0.89
2023-01-26T08:58:45.376Z,0.89
2023-01-26T08:59:45.384Z,0.88
2023-01-26T09:00:45.476Z,0.88
2023-01-26T09:01:45.382Z,0.89
2023-01-26T09:02:45.485Z,0.94
2023-01-26T09:03:45.386Z,0.97
2023-01-26T09:04:45.317Z,0.98
2023-01-26T09:05:45.333Z,1.00
2023-01-26T09:06:45.320Z,0.97
2023-01-26T09:07:45.287Z,0.97
2023-01-26T09:08:45.265Z,0.97
2023-01-26T09:09:45.279Z,1.00
2023-01-26T09:10:45.311Z,1.03
2023-01-26T09:11:45.302Z,1.06
2023-01-26T09:12:45.226Z,1.07
2023-01-26T09:13:45.219Z,1.06
2023-01-26T09:14:45.226Z,1.06
2023-01-26T09:15:45.224Z,1.04
2023-01-26T09:16:45.225Z,1.06
2023-01-26T09:17:45.188Z,1.10
2023-01-26T09:18:45.148Z,1.10
2023-01-26T09:19:45.181Z,1.10
2023-01-26T09:20:45.163Z,1.14
2023-01-26T09:21:45.278Z,1.12
2023-01-26T09:22:45.126Z,1.01
2023-01-26T09:23:45.108Z,0.97
2023-01-26T09:24:45.105Z,0.94
2023-01-26T09:25:45.114Z,0.97
2023-01-26T09:26:45.058Z,0.97
2023-01-26T09:27:45.154Z,0.98
2023-01-26T09:28:45.063Z,0.98
2023-01-26T09:29:45.059Z,0.97
2023-01-26T09:30:45.093Z,0.98
2023-01-26T09:31:45.147Z,1.00
2023-01-26T09:32:45.020Z,1.03
2023-01-26T09:33:45.557Z,1.03
2023-01-26T09:34:46.096Z,1.07
2023-01-26T09:35:44.974Z,1.07
2023-01-26T09:36:44.986Z,1.14
2023-01-26T09:37:44.985Z,1.16
2023-01-26T09:38:44.958Z,1.24
2023-01-26T09:39:44.987Z,1.28
2023-01-26T09:40:44.926Z,1.32
2023-01-26T09:41:44.954Z,1.32
2023-01-26T09:42:44.910Z,1.25
2023-01-26T09:43:44.885Z,1.28
2023-01-26T09:44:44.918Z,1.28
2023-01-26T09:45:44.876Z,1.33
2023-01-26T09:46:44.841Z,1.33
2023-01-26T09:47:44.870Z,1.37
2023-01-26T09:48:44.905Z,1.42
2023-01-26T09:49:44.837Z,1.40
2023-01-26T09:50:44.781Z,1.44
2023-01-26T09:51:44.815Z,1.50
2023-01-26T09:52:44.796Z,1.50
2023-01-26T09:53:44.847Z,1.50
2023-01-26T09:54:44.773Z,1.50
2023-01-26T09:55:44.769Z,1.52
2023-01-26T09:56:44.731Z,1.52
2023-01-26T09:57:44.723Z,1.55
2023-01-26T09:58:44.718Z,1.51
2023-01-26T09:59:44.798Z,1.43
2023-01-26T10:00:44.697Z,1.37
2023-01-26T10:01:44.786Z,1.37
2023-01-26T10:02:44.794Z,1.36
2023-01-26T10:03:44.700Z,1.32
2023-01-26T10:04:44.653Z,1.29
2023-01-26T10:05:44.659Z,1.29
2023-01-26T10:06:44.611Z,1.34
2023-01-26T10:07:44.612Z,1.33
2023-01-26T10:08:44.611Z,1.34
2023-01-26T10:09:46.002Z,1.32
2023-01-26T10:10:44.657Z,1.39
2023-01-26T10:11:44.590Z,1.37
2023-01-26T10:12:44.543Z,1.37
2023-01-26T10:13:44.567Z,1.37
2023-01-26T10:14:44.539Z,1.37
2023-01-26T10:15:44.544Z,1.36
2023-01-26T10:16:44.553Z,1.39
2023-01-26T10:17:44.518Z,1.37
2023-01-26T10:18:44.516Z,1.37
2023-01-26T10:19:44.504Z,1.40
2023-01-26T10:20:44.470Z,1.33
2023-01-26T10:21:44.454Z,1.34
2023-01-26T10:22:44.518Z,1.36
2023-01-26T10:23:44.450Z,1.36
2023-01-26T10:24:44.431Z,1.28
2023-01-26T10:25:44.402Z,1.32
2023-01-26T10:26:44.383Z,1.34
2023-01-26T10:27:44.377Z,1.33
2023-01-26T10:28:44.355Z,1.34
2023-01-26T10:29:46.082Z,1.36
2023-01-26T10:30:44.474Z,1.37
2023-01-26T10:31:44.431Z,1.37
2023-01-26T10:32:44.532Z,1.40
2023-01-26T10:33:44.342Z,1.44
2023-01-26T10:34:44.326Z,1.44
2023-01-26T10:35:44.285Z,1.43
2023-01-26T10:36:44.288Z,1.32
2023-01-26T10:37:44.295Z,1.29
2023-01-26T10:38:44.376Z,1.25
2023-01-26T10:39:44.247Z,1.25
2023-01-26T10:40:44.253Z,1.29
2023-01-26T10:41:44.244Z,1.26
2023-01-26T10:42:44.210Z,1.25
2023-01-26T10:43:44.198Z,1.22
2023-01-26T10:44:44.225Z,1.21
2023-01-26T10:45:44.167Z,1.21
2023-01-26T10:46:44.237Z,1.24
2023-01-26T10:47:44.176Z,1.26
2023-01-26T10:48:44.128Z,1.29
2023-01-26T10:49:44.213Z,1.34
2023-01-26T10:50:44.137Z,1.37
2023-01-26T10:51:44.144Z,1.36
2023-01-26T10:52:44.135Z,1.28
2023-01-26T10:53:44.079Z,1.32
2023-01-26T10:54:44.102Z,1.28
2023-01-26T10:55:44.058Z,1.26
2023-01-26T10:56:44.037Z,1.25
2023-01-26T10:57:44.074Z,1.26
2023-01-26T10:58:44.092Z,1.26
2023-01-26T10:59:44.018Z,1.34
2023-01-26T11:00:43.988Z,1.34
2023-01-26T11:01:44.027Z,1.39
2023-01-26T11:02:43.994Z,1.43
2023-01-26T11:03:44.015Z,1.44
2023-01-26T11:04:43.958Z,1.44
2023-01-26T11:05:43.955Z,1.47
2023-01-26T11:06:43.941Z,1.52
2023-01-26T11:07:44.129Z,1.54
2023-01-26T11:08:43.932Z,1.57
2023-01-26T11:09:43.901Z,1.60
2023-01-26T11:10:43.925Z,1.60
2023-01-26T11:11:43.894Z,1.61
2023-01-26T11:12:43.871Z,1.58
2023-01-26T11:13:43.882Z,1.58
2023-01-26T11:14:43.867Z,1.62
2023-01-26T11:15:43.827Z,1.62
2023-01-26T11:16:43.817Z,1.60
2023-01-26T11:17:43.823Z,1.57
2023-01-26T11:18:43.792Z,1.57
2023-01-26T11:19:43.795Z,1.55
2023-01-26T11:20:43.782Z,1.52
2023-01-26T11:21:43.759Z,1.47
2023-01-26T11:22:43.776Z,1.51
2023-01-26T11:23:43.824Z,1.52
2023-01-26T11:24:43.758Z,1.51
2023-01-26T11:25:43.739Z,1.50
2023-01-26T11:26:43.727Z,1.57
2023-01-26T11:27:43.689Z,1.60
2023-01-26T11:28:43.681Z,1.65
2023-01-26T11:29:45.342Z,1.68
2023-01-26T11:30:43.731Z,1.73
2023-01-26T11:31:43.905Z,1.76
2023-01-26T11:32:43.659Z,1.72
2023-01-26T11:33:43.644Z,1.73
2023-01-26T11:34:43.648Z,1.78
2023-01-26T11:35:43.599Z,1.76
2023-01-26T11:36:43.622Z,1.80
2023-01-26T11:37:43.623Z,1.83
2023-01-26T11:38:43.591Z,1.82
2023-01-26T11:39:43.569Z,1.82
2023-01-26T11:40:43.544Z,1.85
2023-01-26T11:41:43.550Z,1.87
2023-01-26T11:42:43.543Z,1.87
2023-01-26T11:43:43.520Z,1.83
2023-01-26T11:44:43.495Z,1.87
2023-01-26T11:45:43.536Z,1.85
2023-01-26T11:46:43.478Z,1.85
2023-01-26T11:47:43.477Z,1.83
2023-01-26T11:48:43.483Z,1.89
2023-01-26T11:49:43.458Z,1.87
2023-01-26T11:50:43.428Z,1.89
2023-01-26T11:51:43.440Z,1.89
2023-01-26T11:52:43.408Z,1.93
2023-01-26T11:53:43.564Z,1.98
2023-01-26T11:54:43.415Z,2.01
2023-01-26T11:55:43.382Z,2.02
2023-01-26T11:56:43.420Z,2.01
2023-01-26T11:57:43.372Z,2.04
2023-01-26T11:58:43.373Z,2.02
2023-01-26T11:59:43.425Z,2.01
2023-01-26T12:00:43.348Z,2.02
2023-01-26T12:01:43.306Z,2.09
2023-01-26T12:02:43.387Z,2.12
2023-01-26T12:03:43.332Z,2.12
2023-01-26T12:04:43.313Z,2.17
2023-01-26T12:05:43.303Z,2.19
2023-01-26T12:06:43.252Z,2.20
2023-01-26T12:07:43.232Z,2.23
2023-01-26T12:08:43.236Z,2.27
2023-01-26T12:09:43.225Z,2.23
2023-01-26T12:10:43.204Z,2.23
2023-01-26T12:11:43.213Z,2.23
2023-01-26T12:12:43.224Z,2.22
2023-01-26T12:13:43.210Z,2.20
2023-01-26T12:14:43.208Z,2.26
2023-01-26T12:15:43.156Z,2.22
2023-01-26T12:16:43.203Z,2.09
2023-01-26T12:17:43.108Z,2.01
2023-01-26T12:18:55.678Z,1.93
2023-01-26T12:19:44.144Z,1.87
2023-01-26T12:20:43.104Z,1.83
2023-01-26T12:21:43.095Z,1.82
2023-01-26T12:22:47.406Z,1.82
2023-01-26T12:23:43.123Z,1.87
2023-01-26T12:25:44.202Z,1.94
2023-01-26T12:26:43.020Z,1.99
2023-01-26T12:27:43.016Z,1.97
2023-01-26T12:28:43.035Z,1.91
2023-01-26T12:29:43.057Z,1.87
2023-01-26T12:30:43.124Z,1.87
2023-01-26T12:31:43.082Z,1.90
2023-01-26T12:32:43.028Z,1.91
2023-01-26T12:33:43.176Z,1.94
2023-01-26T12:34:42.953Z,1.99
2023-01-26T12:35:42.899Z,1.99
2023-01-26T12:36:42.899Z,2.01
2023-01-26T12:37:42.897Z,2.04
2023-01-26T12:38:42.881Z,1.99
2023-01-26T12:39:43.275Z,1.93
2023-01-26T12:40:42.865Z,1.89
2023-01-26T12:41:42.831Z,1.87
2023-01-26T12:42:42.837Z,1.87
2023-01-26T12:43:42.845Z,1.87
2023-01-26T12:44:42.813Z,1.91
2023-01-26T12:45:42.808Z,1.93
2023-01-26T12:46:42.811Z,1.98
2023-01-26T12:47:42.788Z,1.99
2023-01-26T12:48:42.764Z,1.97
2023-01-26T12:49:42.832Z,2.01
2023-01-26T12:50:42.788Z,1.99
2023-01-26T12:51:42.749Z,2.01
2023-01-26T12:52:42.721Z,2.04
2023-01-26T12:53:42.739Z,2.04
2023-01-26T12:54:42.691Z,2.08
2023-01-26T12:55:42.968Z,2.08
2023-01-26T12:56:42.704Z,2.12
2023-01-26T12:57:42.662Z,2.15
2023-01-26T12:58:43.056Z,2.15
2023-01-26T12:59:48.639Z,2.19
2023-01-26T13:00:43.679Z,2.23
2023-01-26T13:01:42.677Z,2.23
2023-01-26T13:02:42.757Z,2.23
2023-01-26T13:03:42.600Z,2.22
2023-01-26T13:04:42.608Z,2.17
2023-01-26T13:05:42.580Z,2.15
2023-01-26T13:06:42.581Z,2.16
2023-01-26T13:07:42.709Z,2.15
2023-01-26T13:08:57.380Z,2.17
2023-01-26T13:09:42.539Z,2.19
2023-01-26T13:10:42.512Z,2.23
2023-01-26T13:11:42.485Z,2.22
2023-01-26T13:12:42.512Z,2.23
2023-01-26T13:13:42.505Z,2.23
2023-01-26T13:14:42.464Z,2.28
2023-01-26T13:15:42.498Z,2.31
2023-01-26T13:16:42.489Z,2.35
2023-01-26T13:17:42.430Z,2.31